Weather observations for the past three days for
Havasu City Airport
Imperial (Metric)
Date Time (mst) Wind (mph) Vis. (mi.) Weather Sky Cond. Temperature (ºF) Relative Humidity Wind Chill (°F) Heat Index (°F) Pressure Precipitation (in)
Air Dwpt 6 hour altimeter (in) sea level (mb) 1 hr 3 hr 6 hr
Max. Min.
02 15:15 SW 15 10.00 Fair CLR 95 15.8 5% 90 29.79 0.0
02 14:55 NW 9 10.00 Fair CLR 93.2 17.6 6% 89 29.81 0.0
02 14:35 SW 10 G 16 10.00 Fair CLR 93.2 17.6 6% 89 29.83 0.0
02 14:15 SW 10 G 17 10.00 Fair CLR 93.2 17.6 6% 89 29.84 0.0
02 13:55 SW 12 G 18 10.00 Fair CLR 93.2 14 5% 89 29.85 0.0
02 13:35 W 10 G 16 10.00 Fair CLR 91.4 12.2 5% 87 29.85 0.0
02 13:15 Vrbl 3 10.00 Fair CLR 91.4 17.6 7% 87 29.85 0.0
02 12:55 Calm 10.00 Fair CLR 89.6 21.2 8% 86 29.87 0.0
02 12:35 Vrbl 7 10.00 Fair CLR 89.6 21.2 8% 86 29.88 0.0
02 12:15 SW 7 G 15 10.00 Fair CLR 89.6 21.2 8% 86 29.89 0.0
02 11:55 Vrbl 7 G 14 10.00 Fair CLR 89.6 21.2 8% 86 29.9 0.0
02 11:35 Vrbl 5 10.00 Fair CLR 87.8 19.4 8% 84 29.9 0.0
02 11:15 W 8 10.00 Fair CLR 87.8 19.4 8% 84 29.91 0.0
02 10:55 Calm 10.00 Fair CLR 86 19.4 8% 83 29.92 0.0
02 10:35 Calm 10.00 Fair CLR 86 17.6 8% 83 29.92 0.0
02 10:15 Vrbl 5 10.00 Fair CLR 86 17.6 8% 83 29.92 0.0
02 09:55 W 8 10.00 Fair CLR 84.2 17.6 8% 81 29.92 0.0
02 09:35 W 9 10.00 Fair CLR 84.2 17.6 8% 81 29.93 0.0
02 09:15 W 9 10.00 Fair CLR 82.4 17.6 9% 80 29.93 0.0
02 08:55 NW 9 10.00 Fair CLR 82.4 15.8 8% 80 29.92 0.0
02 08:35 NW 8 10.00 Fair CLR 80.6 15.8 9% 79 29.92 0.0
02 08:15 NW 10 10.00 Fair CLR 78.8 15.8 9% 77 29.91 0.0
02 07:55 NW 8 10.00 Fair CLR 78.8 15.8 9% 77 29.91 0.0
02 07:35 NW 5 10.00 Fair CLR 77 15.8 10% 76 29.9 0.0
02 07:15 N 6 10.00 Fair CLR 75.2 15.8 10% 75 29.9 0.0
02 06:55 N 7 10.00 Fair CLR 75.2 15.8 10% 75 29.9 0.0
02 06:35 N 5 10.00 Fair CLR 75.2 15.8 10% 75 29.89 0.0
02 06:15 Vrbl 3 G 12 10.00 Fair CLR 73.4 15.8 11% 29.88 0.0
02 05:55 N 8 10.00 Fair CLR 73.4 15.8 11% 29.88 0.0
02 05:35 Calm 10.00 Fair CLR 71.6 15.8 12% 29.87 0.0
02 05:15 N 7 10.00 Fair CLR 73.4 15.8 11% 29.86 0.0
02 04:55 Calm 10.00 Fair CLR 73.4 14 10% 29.86 0.0
02 04:35 Calm 10.00 Fair CLR 73.4 14 10% 29.85 0.0
02 04:15 Calm 10.00 Fair CLR 73.4 14 10% 29.85 0.0
02 03:55 N 7 10.00 Fair CLR 77 14 9% 76 29.84 0.0
02 03:35 N 8 G 17 10.00 Fair CLR 80.6 15.8 9% 79 29.84 0.0
02 03:15 N 10 10.00 Fair CLR 80.6 14 8% 78 29.84 0.0
02 02:55 N 10 10.00 Fair CLR 78.8 12.2 8% 77 29.84 0.0
02 02:35 N 6 10.00 Fair CLR 78.8 12.2 8% 77 29.84 0.0
02 02:15 N 7 10.00 Fair CLR 78.8 12.2 8% 77 29.84 0.0
02 01:55 N 6 10.00 Fair CLR 78.8 12.2 8% 77 29.85 0.0
02 01:35 N 5 10.00 Fair CLR 77 12.2 8% 76 29.85 0.0
02 01:15 NW 8 10.00 Fair CLR 80.6 12.2 7% 78 29.85 0.0
02 00:55 N 5 10.00 Fair CLR 78.8 12.2 8% 77 29.85 0.0
02 00:15 N 3 10.00 Fair CLR 82.4 12.2 7% 80 29.85 0.0
01 23:55 Vrbl 5 10.00 Fair CLR 82.4 12.2 7% 80 29.85 0.0
01 23:35 NE 9 10.00 Fair CLR 84.2 14 7% 81 29.85 0.0
01 23:15 NE 9 10.00 Fair CLR 84.2 14 7% 81 29.84 0.0
01 22:55 N 7 10.00 Fair CLR 84.2 14 7% 81 29.84 0.0
01 22:35 N 7 10.00 Fair CLR 84.2 15.8 8% 81 29.84 0.0
01 22:15 N 5 10.00 Fair CLR 84.2 15.8 8% 81 29.83 0.0
01 21:55 Vrbl 6 G 13 10.00 Fair CLR 86 17.6 8% 83 29.83 0.0
01 21:35 NE 9 G 15 10.00 Fair CLR 86 17.6 8% 83 29.82 0.0
01 21:15 N 13 G 20 10.00 Fair CLR 86 17.6 8% 83 29.81 0.0
01 20:55 N 12 G 17 10.00 Fair CLR 86 17.6 8% 83 29.81 0.0
01 20:35 N 8 G 17 10.00 Fair CLR 87.8 17.6 7% 84 29.79 0.0
01 20:15 Calm 10.00 Fair CLR 87.8 17.6 7% 84 29.79 0.0
01 19:55 N 8 G 17 10.00 Fair CLR 87.8 19.4 8% 84 29.78 0.0
01 19:35 N 8 G 15 10.00 Fair CLR 89.6 19.4 7% 86 29.77 0.0
01 19:15 N 13 10.00 Fair CLR 89.6 19.4 7% 86 29.77 0.0
01 18:55 N 13 10.00 Fair CLR 91.4 19.4 7% 87 29.76 0.0
01 18:35 N 7 G 17 9.00 Light Rain CLR 91.4 19.4 7% 87 29.76 0.0
01 18:15 N 12 G 21 10.00 Fair CLR 91.4 21.2 8% 87 29.75 0.0
01 17:55 W 15 10.00 Fair CLR 93.2 21.2 7% 89 29.75 0.0
01 17:35 N 14 G 22 7.00 Light Rain CLR 93.2 21.2 7% 89 29.76 0.0
01 17:15 NW 12 G 24 10.00 Fair CLR 93.2 21.2 7% 89 29.76 0.0
01 16:55 N 14 G 22 10.00 Fair CLR 93.2 21.2 7% 89 29.76 0.0
01 16:35 NW 10 G 23 10.00 Fair CLR 93.2 21.2 7% 89 29.76 0.0
01 16:15 NW 18 G 30 10.00 Fair CLR 93.2 21.2 7% 89 29.76 0.0
01 15:55 N 14 G 23 10.00 Fair CLR 93.2 21.2 7% 89 29.76 0.0
01 15:35 NW 24 10.00 Fair and Breezy CLR 95 23 7% 90 29.76 0.0
01 15:15 NW 17 G 28 10.00 Fair CLR 93.2 21.2 7% 89 29.77 0.0
01 14:55 NW 12 G 23 10.00 Fair CLR 95 21.2 7% 90 29.78 0.0
01 14:35 N 14 G 24 10.00 Fair CLR 93.2 21.2 7% 89 29.79 0.0
01 14:15 NW 21 G 29 10.00 Fair and Breezy CLR 95 21.2 7% 90 29.79 0.0
01 13:55 NW 20 10.00 Fair CLR 93.2 21.2 7% 89 29.8 0.0
01 13:35 NW 17 G 30 10.00 Fair CLR 93.2 21.2 7% 89 29.81 0.0
01 13:15 NW 16 10.00 Fair CLR 93.2 21.2 7% 89 29.81 0.0
01 12:55 NW 15 G 24 10.00 Fair CLR 93.2 21.2 7% 89 29.82 0.0
01 12:35 NW 12 G 20 10.00 Fair CLR 91.4 21.2 8% 87 29.82 0.0
01 12:15 W 9 G 18 10.00 Fair CLR 91.4 21.2 8% 87 29.83 0.0
01 11:55 NW 15 10.00 Fair CLR 89.6 21.2 8% 86 29.84 0.0
01 11:35 NW 10 10.00 Fair CLR 89.6 21.2 8% 86 29.84 0.0
01 11:15 NW 13 10.00 Fair CLR 87.8 21.2 9% 84 29.85 0.0
01 10:55 NW 9 G 16 10.00 Fair CLR 87.8 21.2 9% 84 29.85 0.0
01 10:35 N 10 10.00 Fair CLR 87.8 21.2 9% 84 29.85 0.0
01 10:15 NW 14 G 20 10.00 Fair CLR 86 23 10% 83 29.86 0.0
01 09:55 NW 14 10.00 Fair CLR 84.2 23 10% 81 29.86 0.0
01 09:35 N 9 G 18 10.00 Fair CLR 84.2 23 10% 81 29.86 0.0
01 09:15 N 17 10.00 Fair CLR 82.4 24.8 12% 80 29.86 0.0
01 08:55 N 18 10.00 Fair CLR 80.6 24.8 13% 79 29.85 0.0
01 08:35 NW 14 10.00 Fair CLR 80.6 24.8 13% 79 29.84 0.0
01 08:15 N 13 G 18 10.00 Fair CLR 78.8 24.8 13% 77 29.84 0.0
01 07:55 N 14 10.00 Fair CLR 77 24.8 14% 76 29.84 0.0
01 07:35 NW 6 10.00 Fair CLR 77 23 13% 76 29.83 0.0
01 07:15 NW 7 10.00 Fair CLR 75.2 23 14% 75 29.83 0.0
01 06:55 N 9 10.00 Fair CLR 75.2 24.8 15% 75 29.82 0.0
01 06:35 NW 10 10.00 Fair CLR 73.4 23 15% 29.81 0.0
01 06:15 N 7 10.00 Fair CLR 71.6 21.2 15% 29.8 0.0
01 05:55 N 6 10.00 Fair CLR 71.6 21.2 15% 29.79 0.0
01 05:35 N 5 10.00 Fair CLR 73.4 19.4 13% 29.79 0.0
01 05:15 Calm 10.00 Fair CLR 71.6 19.4 14% 29.78 0.0
01 04:55 Calm 10.00 Fair CLR 71.6 19.4 14% 29.78 0.0
01 04:35 Calm 10.00 Fair CLR 75.2 19.4 12% 75 29.77 0.0
01 04:15 N 6 10.00 Fair CLR 73.4 19.4 13% 29.76 0.0
01 03:55 Calm 10.00 Fair CLR 75.2 19.4 12% 75 29.76 0.0
01 03:35 Calm 10.00 Fair CLR 73.4 19.4 13% 29.75 0.0
01 03:15 Calm 10.00 Fair CLR 77 21.2 12% 76 29.75 0.0
01 02:55 Calm 10.00 Fair CLR 75.2 21.2 13% 75 29.75 0.0
01 02:35 Calm 10.00 Fair CLR 75.2 21.2 13% 75 29.74 0.0
01 02:15 NE 7 10.00 Fair CLR 77 21.2 12% 76 29.74 0.0
01 01:55 NE 7 10.00 Fair CLR 77 19.4 11% 76 29.74 0.0
01 01:35 N 7 10.00 Fair CLR 78.8 21.2 12% 77 29.74 0.0
01 01:15 N 9 10.00 Fair CLR 80.6 21.2 11% 79 29.74 0.0
01 00:55 N 6 10.00 Fair CLR 80.6 21.2 11% 79 29.74 0.0
01 00:35 N 7 G 14 10.00 Fair CLR 80.6 21.2 11% 79 29.74 0.0
01 00:15 N 8 10.00 Fair CLR 80.6 21.2 11% 79 29.74 0.0
30 23:55 N 7 10.00 Fair CLR 80.6 21.2 11% 79 29.73 0.0
30 23:35 N 7 10.00 Fair CLR 80.6 21.2 11% 79 29.73 0.0
30 23:15 N 8 10.00 Fair CLR 80.6 21.2 11% 79 29.72 0.0
30 22:55 N 7 10.00 Fair CLR 82.4 19.4 9% 80 29.72 0.0
30 22:35 N 8 10.00 Fair CLR 84.2 19.4 9% 81 29.72 0.0
30 21:55 N 10 G 17 10.00 Fair CLR 86 21.2 9% 83 29.71 0.0
30 21:35 N 13 G 20 10.00 Fair CLR 86 21.2 9% 83 29.71 0.0
30 21:15 N 13 G 20 10.00 Fair CLR 86 21.2 9% 83 29.71 0.0
30 20:55 N 10 10.00 Fair CLR 86 21.2 9% 83 29.7 0.0
30 20:35 N 10 G 17 10.00 Fair CLR 86 21.2 9% 83 29.7 0.0
30 20:15 N 13 G 20 10.00 Fair CLR 86 21.2 9% 83 29.69 0.0
30 19:55 N 12 G 20 10.00 Fair CLR 86 21.2 9% 83 29.68 0.0
30 19:35 N 12 G 23 10.00 Fair CLR 87.8 21.2 9% 84 29.68 0.0
30 18:55 NW 18 G 26 10.00 Fair CLR 89.6 19.4 7% 86 29.66 0.0
30 18:35 NW 17 G 28 10.00 Fair CLR 89.6 19.4 7% 86 29.66 0.0
30 18:15 NW 16 10.00 Fair CLR 91.4 19.4 7% 87 29.66 0.0
30 17:55 NW 22 10.00 Fair and Breezy CLR 91.4 19.4 7% 87 29.66 0.0
30 17:35 NW 22 G 30 10.00 Fair and Breezy CLR 91.4 17.6 7% 87 29.66 0.0
30 17:15 NW 20 G 31 10.00 Fair CLR 91.4 19.4 7% 87 29.66 0.0
30 16:55 NW 21 10.00 Fair and Breezy CLR 93.2 19.4 7% 89 29.65 0.0
30 16:35 NW 21 G 26 10.00 Fair and Breezy CLR 93.2 21.2 7% 89 29.65 0.0
30 16:15 NW 21 G 30 10.00 Fair and Breezy CLR 93.2 21.2 7% 89 29.66 0.0
30 15:55 NW 17 G 28 10.00 Fair CLR 93.2 23 8% 89 29.66 0.0
30 15:35 NW 25 10.00 Fair and Breezy CLR 93.2 23 8% 89 29.67 0.0
30 15:15 W 23 G 32 10.00 Fair and Breezy CLR 93.2 23 8% 89 29.67 0.0
30 14:55 NW 13 G 23 10.00 Fair CLR 93.2 23 8% 89 29.69 0.0
30 14:35 W 18 10.00 Fair CLR 93.2 23 8% 89 29.69 0.0
30 14:15 NW 13 G 20 10.00 Fair CLR 93.2 21.2 7% 89 29.71 0.0
30 13:55 W 17 G 24 10.00 Fair CLR 93.2 23 8% 89 29.71 0.0
30 13:35 NW 8 G 26 10.00 Fair CLR 91.4 21.2 8% 87 29.72 0.0
30 13:15 N 14 G 21 10.00 Fair CLR 91.4 21.2 8% 87 29.73 0.0
30 12:55 NW 7 G 23 10.00 Fair CLR 91.4 21.2 8% 87 29.74 0.0
30 12:35 NW 10 G 18 10.00 Fair CLR 89.6 21.2 8% 86 29.75 0.0
30 12:15 Vrbl 5 G 14 10.00 Fair CLR 87.8 24.8 10% 84 29.76 0.0
30 11:55 W 7 G 15 10.00 Fair CLR 86 24.8 11% 83 29.77 0.0
30 11:35 NW 13 10.00 Fair CLR 87.8 23 9% 84 29.78 0.0
30 11:15 W 8 10.00 Fair CLR 84.2 23 10% 81 29.79 0.0
30 10:55 W 7 10.00 Fair CLR 84.2 21.2 10% 81 29.8 0.0
30 10:35 Vrbl 7 10.00 Fair CLR 82.4 21.2 10% 80 29.81 0.0
30 10:15 NW 7 G 15 10.00 Fair CLR 82.4 21.2 10% 80 29.82 0.0
30 09:55 NW 10 10.00 Fair CLR 82.4 21.2 10% 80 29.82 0.0
30 09:35 NW 9 10.00 Fair CLR 80.6 21.2 11% 79 29.82 0.0
30 09:15 NW 9 10.00 Fair CLR 78.8 21.2 12% 77 29.82 0.0
30 08:55 Calm 10.00 Fair CLR 75.2 21.2 13% 75 29.82 0.0
30 08:35 W 6 10.00 Fair CLR 77 19.4 11% 76 29.83 0.0
30 08:15 Calm 10.00 Fair CLR 73.4 15.8 11% 29.82 0.0
30 07:55 Calm 10.00 Fair CLR 71.6 17.6 13% 29.82 0.0
30 07:35 Calm 10.00 Fair CLR 71.6 17.6 13% 29.83 0.0
30 07:15 Calm 10.00 Fair CLR 69.8 17.6 13% 29.83 0.0
30 06:55 Calm 10.00 Fair CLR 68 15.8 13% 29.82 0.0
30 06:35 Calm 10.00 Fair CLR 66.2 15.8 14% 29.81 0.0
30 06:15 Calm 10.00 Fair CLR 66.2 14 13% 29.81 0.0
30 05:55 Calm 10.00 Fair CLR 68 15.8 13% 29.8 0.0
30 05:35 NE 5 10.00 Fair CLR 66.2 14 13% 29.8 0.0
30 05:15 NE 5 10.00 Fair CLR 66.2 15.8 14% 29.8 0.0
30 04:55 E 3 10.00 Fair CLR 68 15.8 13% 29.8 0.0
30 04:35 Calm 10.00 Fair CLR 68 15.8 13% 29.8 0.0
30 04:15 Calm 10.00 Fair CLR 68 15.8 13% 29.8 0.0
30 03:55 Calm 10.00 Fair CLR 68 15.8 13% 29.8 0.0
30 03:35 Calm 10.00 Fair CLR 69.8 15.8 12% 29.8 0.0
30 03:15 Calm 10.00 Fair CLR 71.6 14 11% 29.81 0.0
30 02:55 Calm 10.00 Fair CLR 69.8 14 12% 29.81 0.0
30 02:35 Calm 10.00 Fair CLR 71.6 14 11% 29.81 0.0
30 02:15 Calm 10.00 Fair CLR 73.4 15.8 11% 29.82 0.0
30 01:55 N 3 10.00 Fair CLR 73.4 15.8 11% 29.82 0.0
30 01:35 Calm 10.00 Fair CLR 71.6 15.8 12% 29.82 0.0
30 01:15 E 5 10.00 Fair CLR 73.4 15.8 11% 29.82 0.0
30 00:55 Calm 10.00 Fair CLR 73.4 15.8 11% 29.83 0.0
30 00:35 Calm 10.00 Fair CLR 73.4 15.8 11% 29.83 0.0
30 00:15 E 3 10.00 Fair CLR 75.2 15.8 10% 75 29.83 0.0
29 23:55 Calm 10.00 Fair CLR 77 17.6 11% 76 29.84 0.0
29 23:35 Calm 10.00 Fair CLR 78.8 17.6 10% 77 29.84 0.0
29 23:15 SE 3 10.00 Fair CLR 78.8 17.6 10% 77 29.84 0.0
29 22:55 Calm 10.00 Fair CLR 78.8 17.6 10% 77 29.83 0.0
29 22:35 Calm 10.00 Fair CLR 80.6 17.6 9% 79 29.83 0.0
29 22:15 Calm 10.00 Fair CLR 82.4 19.4 9% 80 29.84 0.0
29 21:55 Calm 10.00 Fair CLR 80.6 17.6 9% 79 29.84 0.0
29 21:35 E 6 10.00 Fair CLR 82.4 17.6 9% 80 29.83 0.0
29 21:15 E 7 10.00 Fair CLR 82.4 17.6 9% 80 29.83 0.0
29 20:55 Calm 10.00 Fair CLR 82.4 17.6 9% 80 29.82 0.0
29 20:35 S 6 10.00 Fair CLR 84.2 19.4 9% 81 29.82 0.0
29 20:15 S 7 10.00 Fair CLR 84.2 19.4 9% 81 29.82 0.0
29 19:55 S 10 G 16 10.00 Fair CLR 86 19.4 8% 83 29.81 0.0
29 19:35 S 10 10.00 Fair CLR 86 19.4 8% 83 29.79 0.0
29 19:15 SE 7 10.00 Fair CLR 87.8 23 9% 84 29.78 0.0
29 18:55 SE 6 G 12 10.00 Fair CLR 87.8 23 9% 84 29.78 0.0
29 18:35 Calm 10.00 Fair CLR 87.8 23 9% 84 29.78 0.0
29 18:15 S 6 G 12 10.00 Fair CLR 87.8 23 9% 84 29.79 0.0
29 17:55 Vrbl 6 10.00 Fair CLR 89.6 23 9% 86 29.79 0.0
29 17:35 Calm 10.00 Fair CLR 89.6 23 9% 86 29.79 0.0
29 17:15 Vrbl 5 G 14 10.00 Fair CLR 89.6 23 9% 86 29.8 0.0
29 16:55 Calm 10.00 Fair CLR 89.6 21.2 8% 86 29.8 0.0
29 16:35 S 7 10.00 Fair CLR 89.6 19.4 7% 86 29.81 0.0
29 16:15 Vrbl 7 10.00 Fair CLR 89.6 21.2 8% 86 29.81 0.0
29 15:55 W 9 10.00 Fair CLR 89.6 21.2 8% 86 29.82 0.0
29 15:35 Calm 10.00 Fair CLR 87.8 19.4 8% 84 29.83 0.0
Date Time (mst) Wind (mph) Vis. (mi.) Weather Sky Cond. Air Dwpt Max. Min. Relative Humidity Wind Chill (°F) Heat Index (°F) altimeter (in) sea level (mb) 1 hr 3 hr 6 hr
6 hour
Temperature (ºF) Pressure Precipitation (in)